createdAt,value
2023-01-29T00:01:43.901Z,101371.94
2023-01-29T00:04:47.586Z,101365.78
2023-01-29T00:07:58.509Z,101371.56
2023-01-29T00:11:03.762Z,101379.91
2023-01-29T00:14:07.254Z,101369.25
2023-01-29T00:17:10.867Z,101373.34
2023-01-29T00:20:15.663Z,101375.91
2023-01-29T00:23:19.335Z,101373.84
2023-01-29T00:26:22.814Z,101379.00
2023-01-29T00:29:26.735Z,101385.66
2023-01-29T00:32:31.096Z,101380.28
2023-01-29T00:35:35.108Z,101380.91
2023-01-29T00:38:40.123Z,101381.81
2023-01-29T00:42:02.830Z,101384.25
2023-01-29T00:45:07.677Z,101393.63
2023-01-29T00:48:10.395Z,101391.69
2023-01-29T00:51:13.332Z,101395.00
2023-01-29T00:54:16.118Z,101399.41
2023-01-29T00:57:18.820Z,101394.88
2023-01-29T01:00:21.857Z,101401.06
2023-01-29T01:03:24.878Z,101405.12
2023-01-29T01:06:31.881Z,101408.47
2023-01-29T01:10:01.249Z,101403.06
2023-01-29T01:13:07.197Z,101407.94
2023-01-29T01:16:16.249Z,101406.00
2023-01-29T01:19:21.681Z,101400.13
2023-01-29T01:22:25.764Z,101398.94
2023-01-29T01:25:29.215Z,101400.47
2023-01-29T01:28:40.768Z,101401.88
2023-01-29T01:31:46.374Z,101403.28
2023-01-29T01:34:49.211Z,101408.28
2023-01-29T01:37:53.121Z,101399.41
2023-01-29T01:40:55.954Z,101406.09
2023-01-29T01:44:06.388Z,101409.41
2023-01-29T01:47:08.913Z,101416.09
2023-01-29T01:50:18.819Z,101415.31
2023-01-29T01:53:39.568Z,101417.75
2023-01-29T01:56:50.369Z,101422.25
2023-01-29T02:00:10.281Z,101428.94
2023-01-29T02:03:40.098Z,101419.16
2023-01-29T02:07:06.244Z,101428.25
2023-01-29T02:10:14.034Z,101425.91
2023-01-29T02:13:19.463Z,101432.81
2023-01-29T02:16:23.157Z,101431.34
2023-01-29T02:19:38.214Z,101436.41
2023-01-29T02:23:18.671Z,101439.94
2023-01-29T02:26:24.801Z,101434.00
2023-01-29T02:29:35.339Z,101428.03
2023-01-29T02:32:55.255Z,101428.53
2023-01-29T02:36:19.740Z,101433.37
2023-01-29T02:39:36.982Z,101436.16
2023-01-29T02:43:18.197Z,101434.34
2023-01-29T02:46:43.785Z,101428.66
2023-01-29T02:50:02.237Z,101442.84
2023-01-29T02:53:13.055Z,101440.00
2023-01-29T02:56:22.359Z,101446.47
2023-01-29T02:59:34.321Z,101443.78
2023-01-29T03:02:49.151Z,101449.25
2023-01-29T03:06:24.583Z,101452.91
2023-01-29T03:09:36.343Z,101474.03
2023-01-29T03:12:41.677Z,101460.66
2023-01-29T03:15:51.366Z,101473.59
2023-01-29T03:19:03.388Z,101472.69
2023-01-29T03:22:09.004Z,101479.62
2023-01-29T03:25:34.341Z,101481.22
2023-01-29T03:29:00.259Z,101466.00
2023-01-29T03:32:09.435Z,101468.09
2023-01-29T03:35:21.119Z,101476.06
2023-01-29T03:38:31.717Z,101475.75
2023-01-29T03:42:08.392Z,101477.06
2023-01-29T03:45:31.543Z,101481.88
2023-01-29T03:48:56.114Z,101490.41
2023-01-29T03:52:09.073Z,101486.59
2023-01-29T03:55:15.993Z,101487.16
2023-01-29T03:58:36.861Z,101483.06
2023-01-29T04:01:54.072Z,101480.91
2023-01-29T04:05:05.325Z,101493.12
2023-01-29T04:08:17.843Z,101489.78
2023-01-29T04:11:23.954Z,101485.84
2023-01-29T04:14:27.110Z,101486.12
2023-01-29T04:17:36.863Z,101488.19
2023-01-29T04:20:40.425Z,101488.47
2023-01-29T04:23:43.880Z,101492.06
2023-01-29T04:27:06.871Z,101483.88
2023-01-29T04:30:22.151Z,101482.50
2023-01-29T04:33:53.267Z,101483.56
2023-01-29T04:37:15.285Z,101485.50
2023-01-29T04:40:29.043Z,101485.66
2023-01-29T04:43:44.410Z,101476.91
2023-01-29T04:47:03.606Z,101483.22
2023-01-29T04:50:22.220Z,101479.12
2023-01-29T04:53:52.677Z,101486.06
2023-01-29T04:57:09.248Z,101483.00
2023-01-29T05:00:27.279Z,101489.16
2023-01-29T05:03:32.905Z,101488.41
2023-01-29T05:06:37.017Z,101491.88
2023-01-29T05:09:44.237Z,101487.91
2023-01-29T05:12:51.710Z,101493.06
2023-01-29T05:16:01.805Z,101487.16
2023-01-29T05:19:04.857Z,101492.41
2023-01-29T05:22:16.351Z,101487.44
2023-01-29T05:25:27.319Z,101490.00
2023-01-29T05:28:34.622Z,101491.66
2023-01-29T05:31:37.611Z,101497.06
2023-01-29T05:34:40.977Z,101489.38
2023-01-29T05:37:43.892Z,101491.94
2023-01-29T05:41:08.381Z,101491.94
2023-01-29T05:44:18.066Z,101493.72
2023-01-29T05:47:23.395Z,101490.41
2023-01-29T05:50:28.692Z,101489.62
2023-01-29T05:53:34.331Z,101491.28
2023-01-29T05:56:44.505Z,101494.75
2023-01-29T05:59:48.711Z,101487.97
2023-01-29T06:02:53.766Z,101489.78
2023-01-29T06:05:57.013Z,101494.75
2023-01-29T06:09:01.686Z,101490.66
2023-01-29T06:12:07.963Z,101501.84
2023-01-29T06:15:11.425Z,101498.50
2023-01-29T06:18:16.052Z,101504.53
2023-01-29T06:21:20.326Z,101507.09
2023-01-29T06:24:26.345Z,101520.22
2023-01-29T06:27:31.821Z,101515.72
2023-01-29T06:30:45.386Z,101533.97
2023-01-29T06:33:58.749Z,101532.91
2023-01-29T06:37:02.139Z,101537.28
2023-01-29T06:40:07.641Z,101535.63
2023-01-29T06:43:13.585Z,101540.12
2023-01-29T06:46:17.460Z,101546.31
2023-01-29T06:49:25.183Z,101549.75
2023-01-29T06:52:37.267Z,101549.75
2023-01-29T06:55:42.656Z,101555.66
2023-01-29T06:58:55.264Z,101561.84
2023-01-29T07:02:01.275Z,101562.75
2023-01-29T07:05:06.428Z,101563.00
2023-01-29T07:08:10.379Z,101563.91
2023-01-29T07:11:13.722Z,101563.16
2023-01-29T07:14:18.232Z,101563.28
2023-01-29T07:17:22.157Z,101563.44
2023-01-29T07:20:30.207Z,101566.13
2023-01-29T07:23:35.639Z,101556.13
2023-01-29T07:26:40.535Z,101556.41
2023-01-29T07:29:50.207Z,101550.62
2023-01-29T07:32:53.871Z,101556.06
2023-01-29T07:35:58.742Z,101544.91
2023-01-29T07:39:04.441Z,101545.03
2023-01-29T07:42:10.487Z,101536.44
2023-01-29T07:45:14.586Z,101533.09
2023-01-29T07:48:20.292Z,101536.19
2023-01-29T07:51:24.600Z,101531.87
2023-01-29T07:54:28.402Z,101539.53
2023-01-29T07:58:02.152Z,101539.03
2023-01-29T08:01:08.421Z,101540.22
2023-01-29T08:04:20.113Z,101538.03
2023-01-29T08:07:32.326Z,101538.03
2023-01-29T08:10:39.111Z,101530.09
2023-01-29T08:13:44.427Z,101529.72
2023-01-29T08:16:57.820Z,101536.53
2023-01-29T08:20:01.549Z,101543.06
2023-01-29T08:23:14.652Z,101537.94
2023-01-29T08:26:31.290Z,101536.53
2023-01-29T08:29:42.145Z,101543.59
2023-01-29T08:32:53.546Z,101546.31
2023-01-29T08:36:18.186Z,101545.28
2023-01-29T08:39:27.317Z,101536.94
2023-01-29T08:42:38.751Z,101548.25
2023-01-29T08:45:52.138Z,101553.53
2023-01-29T08:48:59.501Z,101564.84
2023-01-29T08:52:12.459Z,101558.75
2023-01-29T08:55:20.788Z,101571.50
2023-01-29T08:58:30.492Z,101569.84
2023-01-29T09:01:36.812Z,101580.16
2023-01-29T09:04:44.254Z,101585.56
2023-01-29T09:07:52.136Z,101588.63
2023-01-29T09:11:05.480Z,101588.91
2023-01-29T09:14:16.251Z,101591.06
2023-01-29T09:17:28.284Z,101597.88
2023-01-29T09:20:40.522Z,101595.72
2023-01-29T09:23:47.196Z,101599.81
2023-01-29T09:26:57.767Z,101602.63
2023-01-29T09:30:02.310Z,101592.22
2023-01-29T09:33:14.261Z,101592.97
2023-01-29T09:36:27.264Z,101594.91
2023-01-29T09:39:37.798Z,101607.75
2023-01-29T09:42:50.963Z,101596.72
2023-01-29T09:46:15.514Z,101597.34
2023-01-29T09:49:34.594Z,101604.28
2023-01-29T09:53:16.073Z,101604.97
2023-01-29T09:56:33.480Z,101616.28
2023-01-29T09:59:40.297Z,101615.00
2023-01-29T10:03:08.330Z,101617.22
2023-01-29T10:06:35.550Z,101608.66
2023-01-29T10:10:11.126Z,101606.75
2023-01-29T10:13:35.161Z,101616.16
2023-01-29T10:17:24.801Z,101607.41
2023-01-29T10:21:32.263Z,101604.97
2023-01-29T10:24:55.477Z,101605.63
2023-01-29T10:28:05.250Z,101609.75
2023-01-29T10:31:29.201Z,101612.19
2023-01-29T10:34:56.521Z,101616.19
2023-01-29T10:38:41.247Z,101612.97
2023-01-29T10:42:18.050Z,101599.84
2023-01-29T10:46:04.332Z,101607.94
2023-01-29T10:49:28.652Z,101611.78
2023-01-29T10:53:06.379Z,101612.03
2023-01-29T10:56:25.553Z,101608.19
2023-01-29T11:00:07.468Z,101599.44
2023-01-29T11:03:31.406Z,101594.38
2023-01-29T11:06:41.052Z,101592.06
2023-01-29T11:10:00.871Z,101585.59
2023-01-29T11:13:13.800Z,101579.53
2023-01-29T11:16:20.563Z,101571.03
2023-01-29T11:19:44.170Z,101569.88
2023-01-29T11:23:07.586Z,101575.00
2023-01-29T11:26:25.538Z,101572.56
2023-01-29T11:30:05.189Z,101572.84
2023-01-29T11:33:27.240Z,101563.47
2023-01-29T11:36:42.604Z,101552.34
2023-01-29T11:40:00.161Z,101546.69
2023-01-29T11:43:28.248Z,101550.28
2023-01-29T11:46:33.667Z,101531.78
2023-01-29T11:49:40.533Z,101527.94
2023-01-29T11:52:46.262Z,101526.25
2023-01-29T11:55:57.402Z,101522.78
2023-01-29T11:59:08.241Z,101515.06
2023-01-29T12:02:28.312Z,101504.63
2023-01-29T12:05:35.286Z,101492.03
2023-01-29T12:08:43.239Z,101493.75
2023-01-29T12:11:57.230Z,101489.12
2023-01-29T12:15:14.134Z,101482.59
2023-01-29T12:18:40.500Z,101489.62
2023-01-29T12:21:50.152Z,101491.88
2023-01-29T12:25:24.183Z,101483.59
2023-01-29T12:28:39.630Z,101479.81
2023-01-29T12:31:58.552Z,101480.16
2023-01-29T12:35:42.282Z,101485.34
2023-01-29T12:38:46.438Z,101484.06
2023-01-29T12:41:57.734Z,101490.38
2023-01-29T12:45:08.260Z,101480.84
2023-01-29T12:48:23.180Z,101485.88
2023-01-29T12:51:40.223Z,101492.00
2023-01-29T12:54:56.171Z,101486.34
2023-01-29T12:58:05.270Z,101483.38
2023-01-29T13:01:25.182Z,101478.88
2023-01-29T13:04:45.669Z,101468.84
2023-01-29T13:08:10.153Z,101470.00
2023-01-29T13:11:27.248Z,101482.94
2023-01-29T13:14:44.319Z,101471.59
2023-01-29T13:17:55.561Z,101458.50
2023-01-29T13:21:07.307Z,101456.25
2023-01-29T13:24:25.494Z,101450.31
2023-01-29T13:27:36.098Z,101449.78
2023-01-29T13:30:41.798Z,101451.56
2023-01-29T13:34:00.200Z,101449.12
2023-01-29T13:37:35.228Z,101436.81
2023-01-29T13:40:50.853Z,101429.53
2023-01-29T13:43:57.159Z,101419.94
2023-01-29T13:47:11.708Z,101421.62
2023-01-29T13:50:35.293Z,101414.94
2023-01-29T13:53:50.071Z,101421.88
2023-01-29T13:57:01.201Z,101429.84
2023-01-29T14:00:12.252Z,101425.34
2023-01-29T14:03:22.131Z,101427.78
2023-01-29T14:06:53.693Z,101428.31
2023-01-29T14:10:16.309Z,101432.81
2023-01-29T14:13:32.161Z,101422.53
2023-01-29T14:16:37.573Z,101395.31
2023-01-29T14:19:56.806Z,101415.22
2023-01-29T14:23:25.407Z,101416.91
2023-01-29T14:26:44.003Z,101430.50
2023-01-29T14:30:06.154Z,101429.34
2023-01-29T14:33:37.187Z,101435.50
2023-01-29T14:36:43.389Z,101432.22
2023-01-29T14:40:13.278Z,101437.72
2023-01-29T14:43:22.003Z,101436.66
2023-01-29T14:46:44.788Z,101436.63
2023-01-29T14:49:58.408Z,101439.66
2023-01-29T14:53:31.216Z,101435.78
2023-01-29T14:57:01.102Z,101434.81
2023-01-29T15:00:28.604Z,101438.19
2023-01-29T15:03:54.153Z,101440.97
2023-01-29T15:07:20.305Z,101442.22
2023-01-29T15:10:46.151Z,101439.25
2023-01-29T15:14:12.085Z,101441.00
2023-01-29T15:17:33.139Z,101441.62
2023-01-29T15:20:40.760Z,101437.47
2023-01-29T15:23:50.422Z,101444.88
2023-01-29T15:26:55.374Z,101448.81
2023-01-29T15:30:14.149Z,101444.03
2023-01-29T15:33:19.112Z,101445.91
2023-01-29T15:36:33.448Z,101444.41
2023-01-29T15:39:46.148Z,101438.72
2023-01-29T15:42:59.048Z,101436.34
2023-01-29T15:46:16.682Z,101445.12
2023-01-29T15:49:42.238Z,101442.00
2023-01-29T15:53:00.399Z,101442.34
2023-01-29T15:56:35.028Z,101441.00
2023-01-29T15:59:44.981Z,101440.25
2023-01-29T16:03:00.071Z,101447.66
2023-01-29T16:06:18.381Z,101446.03
2023-01-29T16:09:28.219Z,101453.28
2023-01-29T16:12:35.194Z,101455.69
2023-01-29T16:15:58.426Z,101449.53
2023-01-29T16:19:25.214Z,101454.94
2023-01-29T16:22:41.726Z,101451.34
2023-01-29T16:25:57.122Z,101455.13
2023-01-29T16:29:15.108Z,101453.78
2023-01-29T16:32:23.138Z,101466.91
2023-01-29T16:35:28.326Z,101461.19
2023-01-29T16:38:47.182Z,101472.94
2023-01-29T16:42:17.591Z,101473.87
2023-01-29T16:45:43.057Z,101475.38
2023-01-29T16:49:09.094Z,101480.06
2023-01-29T16:52:27.820Z,101481.56
2023-01-29T16:55:51.160Z,101489.09
2023-01-29T16:58:58.217Z,101486.81
2023-01-29T17:02:23.238Z,101484.56
2023-01-29T17:05:39.125Z,101490.28
2023-01-29T17:08:44.137Z,101480.78
2023-01-29T17:12:08.026Z,101489.62
2023-01-29T17:15:46.248Z,101490.41
2023-01-29T17:18:58.331Z,101493.41
2023-01-29T17:22:06.118Z,101491.31
2023-01-29T17:25:25.124Z,101494.19
2023-01-29T17:28:31.006Z,101488.63
2023-01-29T17:31:43.203Z,101485.78
2023-01-29T17:34:49.775Z,101474.34
2023-01-29T17:37:58.190Z,101482.31
2023-01-29T17:41:39.132Z,101474.06
2023-01-29T17:44:45.130Z,101469.25
2023-01-29T17:47:58.136Z,101459.00
2023-01-29T17:51:18.131Z,101460.81
2023-01-29T17:54:28.356Z,101466.97
2023-01-29T17:57:38.488Z,101456.59
2023-01-29T18:00:47.181Z,101454.81
2023-01-29T18:03:59.309Z,101446.97
2023-01-29T18:07:12.199Z,101439.91
2023-01-29T18:10:23.743Z,101444.88
2023-01-29T18:13:29.228Z,101435.56
2023-01-29T18:16:46.553Z,101435.69
2023-01-29T18:19:52.121Z,101431.47
2023-01-29T18:23:11.388Z,101438.69
2023-01-29T18:26:31.229Z,101433.87
2023-01-29T18:29:47.165Z,101426.66
2023-01-29T18:32:58.517Z,101433.28
2023-01-29T18:36:06.848Z,101424.44
2023-01-29T18:39:13.499Z,101422.19
2023-01-29T18:42:25.027Z,101421.88
2023-01-29T18:45:31.227Z,101427.88
2023-01-29T18:48:42.511Z,101425.94
2023-01-29T18:51:52.090Z,101423.37
2023-01-29T18:55:03.346Z,101427.59
2023-01-29T18:58:28.510Z,101428.34
2023-01-29T19:01:34.331Z,101433.00
2023-01-29T19:04:47.054Z,101427.00
2023-01-29T19:07:53.083Z,101439.47
2023-01-29T19:11:04.054Z,101420.06
2023-01-29T19:14:15.085Z,101423.97
2023-01-29T19:17:37.126Z,101427.44
2023-01-29T19:20:52.067Z,101430.25
2023-01-29T19:24:04.461Z,101430.25
2023-01-29T19:27:09.907Z,101426.34
2023-01-29T19:30:17.324Z,101427.09
2023-01-29T19:33:21.796Z,101419.75
2023-01-29T19:36:34.276Z,101422.28
2023-01-29T19:39:38.777Z,101419.44
2023-01-29T19:42:43.243Z,101421.09
2023-01-29T19:45:55.419Z,101424.25
2023-01-29T19:49:04.154Z,101414.78
2023-01-29T19:52:49.707Z,101421.69
2023-01-29T19:56:13.424Z,101411.00
2023-01-29T19:59:21.543Z,101419.41
2023-01-29T20:02:33.312Z,101414.47
2023-01-29T20:05:56.980Z,101411.91
2023-01-29T20:09:11.985Z,101411.75
2023-01-29T20:12:23.210Z,101410.53
2023-01-29T20:15:38.009Z,101412.63
2023-01-29T20:18:53.534Z,101415.03
2023-01-29T20:22:09.122Z,101412.34
2023-01-29T20:25:22.109Z,101414.59
2023-01-29T20:28:35.080Z,101415.47
2023-01-29T20:31:38.913Z,101413.69
2023-01-29T20:34:47.443Z,101405.12
2023-01-29T20:37:56.121Z,101409.16
2023-01-29T20:41:21.069Z,101403.16
2023-01-29T20:44:28.088Z,101403.91
2023-01-29T20:47:39.371Z,101386.03
2023-01-29T20:50:44.115Z,101392.78
2023-01-29T20:53:51.170Z,101387.38
2023-01-29T20:57:12.231Z,101386.47
2023-01-29T21:00:22.121Z,101387.06
2023-01-29T21:03:29.630Z,101379.56
2023-01-29T21:06:36.591Z,101385.72
2023-01-29T21:09:48.057Z,101397.59
2023-01-29T21:13:01.335Z,101396.69
2023-01-29T21:16:11.044Z,101399.09
2023-01-29T21:19:21.814Z,101388.41
2023-01-29T21:22:26.989Z,101400.44
2023-01-29T21:25:40.244Z,101404.03
2023-01-29T21:28:53.233Z,101404.62
2023-01-29T21:31:55.953Z,101405.38
2023-01-29T21:35:00.093Z,101406.13
2023-01-29T21:38:06.065Z,101410.50
2023-01-29T21:41:12.256Z,101416.03
2023-01-29T21:44:17.073Z,101414.97
2023-01-29T21:47:24.090Z,101419.34
2023-01-29T21:50:34.985Z,101408.38
2023-01-29T21:53:40.063Z,101404.62
2023-01-29T21:56:51.804Z,101405.53
2023-01-29T21:59:56.128Z,101404.47
2023-01-29T22:03:01.540Z,101405.22
2023-01-29T22:06:07.129Z,101403.59
2023-01-29T22:09:11.260Z,101398.94
2023-01-29T22:12:14.502Z,101391.12
2023-01-29T22:15:17.468Z,101391.12
2023-01-29T22:18:21.850Z,101389.91
2023-01-29T22:21:24.828Z,101392.63
2023-01-29T22:24:28.657Z,101390.50
2023-01-29T22:27:34.056Z,101380.00
2023-01-29T22:30:39.192Z,101385.09
2023-01-29T22:33:44.069Z,101372.59
2023-01-29T22:36:47.601Z,101367.94
2023-01-29T22:39:53.620Z,101367.03
2023-01-29T22:42:57.543Z,101366.56
2023-01-29T22:46:00.468Z,101369.72
2023-01-29T22:49:04.556Z,101362.97
2023-01-29T22:52:10.552Z,101354.69
2023-01-29T22:55:14.101Z,101356.94
2023-01-29T22:58:18.085Z,101349.13
2023-01-29T23:01:24.287Z,101343.13
2023-01-29T23:04:27.425Z,101343.72
2023-01-29T23:07:31.103Z,101342.66
2023-01-29T23:10:34.586Z,101336.34
2023-01-29T23:13:38.115Z,101335.59
2023-01-29T23:16:42.445Z,101340.53
2023-01-29T23:19:48.035Z,101344.59
2023-01-29T23:22:51.938Z,101342.63
2023-01-29T23:26:19.004Z,101338.44
2023-01-29T23:29:23.127Z,101333.31
2023-01-29T23:32:32.958Z,101335.88
2023-01-29T23:35:35.957Z,101330.34
2023-01-29T23:38:40.347Z,101319.09
2023-01-29T23:41:43.646Z,101320.88
2023-01-29T23:44:48.125Z,101313.06
2023-01-29T23:47:50.655Z,101307.47
2023-01-29T23:50:53.820Z,101309.25
2023-01-29T23:53:56.742Z,101310.91
2023-01-29T23:56:59.857Z,101305.94
